Time;durP1;ratioP1;P1;durP2;ratioP2;P2;SDS_P1;SDS_P2;PMS_P1;PMS_P2;Temp;Humidity;BMP_temperature;BMP_pressure;BME280_temperature;BME280_humidity;BME280_pressure;Samples;Min_cycle;Max_cycle;Signal;HPM_P1;HPM_P2
2022/01/06 05:02:39;;;;;;;5.70;1.25;;;;;;;2.36;74.12;99125.16;4490601;31;164514;-77
2022/01/06 05:05:26;;;;;;;4.62;1.17;;;;;;;2.36;74.12;99125.16;4489144;31;33962;-76
2022/01/06 05:08:12;;;;;;;3.33;1.00;;;;;;;2.34;72.78;99130.84;4491447;31;35520;-76
2022/01/06 05:10:59;;;;;;;3.08;1.10;;;;;;;2.24;73.24;99138.94;4490669;32;35659;-79
2022/01/06 05:13:46;;;;;;;3.83;1.50;;;;;;;2.68;71.74;99131.13;4490236;31;35053;-77
2022/01/06 05:16:33;;;;;;;4.65;1.02;;;;;;;2.22;73.07;99141.91;4478092;32;34207;-76
2022/01/06 05:19:19;;;;;;;5.15;1.40;;;;;;;2.17;72.25;99141.91;4479896;32;34121;-76
2022/01/06 05:22:06;;;;;;;3.12;1.02;;;;;;;2.03;73.24;99140.81;4478565;32;34606;-76
2022/01/06 05:24:54;;;;;;;3.30;0.98;;;;;;;2.19;72.64;99150.56;4481090;31;35436;-78
2022/01/06 05:27:41;;;;;;;3.08;1.58;;;;;;;1.97;74.16;99152.69;4491213;31;35615;-78
2022/01/06 05:30:27;;;;;;;6.82;1.48;;;;;;;2.18;73.40;99148.94;4491796;31;34210;-78
2022/01/06 05:33:14;;;;;;;4.50;1.02;;;;;;;2.06;73.46;99145.66;4489902;32;36051;-77
2022/01/06 05:36:00;;;;;;;5.07;1.45;;;;;;;2.37;72.69;99157.34;4481054;32;35264;-78
2022/01/06 05:38:47;;;;;;;3.28;1.23;;;;;;;2.23;73.02;99151.66;4476500;32;34990;-76
2022/01/06 05:41:36;;;;;;;2.33;0.95;;;;;;;2.37;71.62;99161.94;4490368;32;35431;-77
2022/01/06 05:44:32;;;;;;;2.62;1.17;;;;;;;3.23;68.98;99154.87;4491700;32;34747;-78
2022/01/06 05:47:19;;;;;;;5.95;1.42;;;;;;;2.09;73.04;99150.53;4480771;32;34303;-78
2022/01/06 05:50:06;;;;;;;4.97;1.52;;;;;;;2.09;74.18;99164.06;4492250;32;35011;-78
2022/01/06 05:52:54;;;;;;;4.53;1.65;;;;;;;2.48;72.71;99156.28;4491860;32;34609;-77
2022/01/06 05:55:41;;;;;;;5.47;1.30;;;;;;;2.52;72.60;99161.94;4491339;31;33851;-79
2022/01/06 05:58:27;;;;;;;4.45;1.80;;;;;;;1.91;75.13;99159.97;4491858;32;35051;-77
2022/01/06 06:01:14;;;;;;;4.10;1.40;;;;;;;2.42;73.67;99159.22;4490820;32;34219;-77
2022/01/06 06:04:01;;;;;;;5.85;1.50;;;;;;;2.50;73.43;99161.41;4492901;32;35106;-78
2022/01/06 06:06:48;;;;;;;4.05;1.12;;;;;;;2.06;74.77;99161.06;4491842;31;34995;-77
2022/01/06 06:09:34;;;;;;;4.53;1.80;;;;;;;2.71;73.04;99162.22;4479938;31;34574;-77
2022/01/06 06:12:20;;;;;;;5.03;1.45;;;;;;;2.60;72.25;99171.44;4477661;32;33731;-77
2022/01/06 06:15:07;;;;;;;7.03;1.87;;;;;;;2.03;75.46;99165.13;4482256;32;34373;-79
2022/01/06 06:17:53;;;;;;;6.25;1.62;;;;;;;2.16;75.74;99163.78;4482473;32;35005;-81
2022/01/06 06:20:40;;;;;;;8.70;1.83;;;;;;;1.77;76.98;99165.03;4480725;32;34287;-78
2022/01/06 06:23:27;;;;;;;5.37;1.77;;;;;;;1.77;77.64;99178.53;4470482;32;34266;-78
2022/01/06 06:26:13;;;;;;;5.30;1.65;;;;;;;2.16;76.54;99175.44;4481700;32;35156;-79
2022/01/06 06:29:00;;;;;;;4.90;2.75;;;;;;;1.73;77.72;99168.53;4480590;31;34677;-80
2022/01/06 06:31:47;;;;;;;4.78;1.77;;;;;;;1.78;78.13;99176.66;4481200;32;35330;-78
2022/01/06 06:34:33;;;;;;;3.87;1.75;;;;;;;2.16;76.92;99188.94;4469624;32;34081;-78
2022/01/06 06:37:19;;;;;;;7.65;1.92;;;;;;;1.97;77.43;99201.31;4481857;32;36993;-76
2022/01/06 06:40:06;;;;;;;5.32;1.80;;;;;;;1.85;77.66;99200.72;4480996;32;36045;-78
2022/01/06 06:42:53;;;;;;;7.07;1.90;;;;;;;1.93;77.34;99200.19;4468472;32;35397;-78
2022/01/06 06:45:41;;;;;;;5.82;2.10;;;;;;;2.05;77.24;99203.50;4468326;32;34034;-78
2022/01/06 06:48:30;;;;;;;9.25;1.98;;;;;;;2.12;76.69;99214.88;4469119;32;34824;-78
2022/01/06 06:51:16;;;;;;;7.85;2.15;;;;;;;2.10;76.83;99217.00;4481715;32;34495;-78
2022/01/06 06:54:03;;;;;;;10.73;2.83;;;;;;;2.35;76.47;99223.56;4481339;32;33491;-78
2022/01/06 06:56:49;;;;;;;8.57;2.70;;;;;;;2.36;76.19;99225.19;4481615;32;35057;-78
2022/01/06 06:59:41;;;;;;;6.85;2.60;;;;;;;2.05;77.49;99233.22;4469412;32;34638;-78
2022/01/06 07:02:27;;;;;;;6.65;2.80;;;;;;;1.92;77.53;99236.41;4480897;32;34587;-79
2022/01/06 07:05:17;;;;;;;4.60;2.58;;;;;;;1.94;77.41;99256.69;4469551;32;35254;-79
2022/01/06 07:08:06;;;;;;;7.72;2.25;;;;;;;1.97;77.53;99247.25;4470252;32;35195;-78
2022/01/06 07:10:53;;;;;;;6.78;2.53;;;;;;;2.19;77.29;99264.09;4479317;31;34663;-78
2022/01/06 07:33:43;;;;;;;7.05;2.05;;;;;;;1.61;80.56;99290.28;4494293;31;180663;-78
2022/01/06 07:36:30;;;;;;;5.40;2.80;;;;;;;1.75;79.33;99291.44;4480125;31;33965;-76
2022/01/06 07:39:17;;;;;;;5.85;2.40;;;;;;;1.96;78.39;99305.88;4476801;31;34533;-77
2022/01/06 07:42:04;;;;;;;6.75;2.58;;;;;;;1.83;79.56;99292.84;4489070;31;35185;-78
2022/01/06 07:44:55;;;;;;;8.00;2.72;;;;;;;1.98;78.50;99300.19;4481466;31;34641;-77
2022/01/06 07:51:00;;;;;;;5.03;2.12;;;;;;;1.98;78.59;99316.41;4481130;31;34268;-79
2022/01/06 07:53:49;;;;;;;8.68;2.55;;;;;;;2.02;78.65;99318.34;4487114;31;34532;-80
2022/01/06 07:56:35;;;;;;;8.30;2.28;;;;;;;2.24;78.02;99323.56;4499595;31;34478;-79
2022/01/06 07:59:22;;;;;;;10.00;2.17;;;;;;;2.24;78.17;99336.28;4500094;31;33975;-78
2022/01/06 08:02:09;;;;;;;7.55;2.42;;;;;;;2.30;77.36;99334.41;4500954;31;34668;-78
2022/01/06 08:04:55;;;;;;;7.93;2.00;;;;;;;2.40;77.49;99335.25;4488738;31;35899;-77
2022/01/06 08:07:42;;;;;;;6.50;1.55;;;;;;;2.36;77.40;99342.28;4502379;31;35432;-80
2022/01/06 08:10:29;;;;;;;10.98;2.60;;;;;;;2.36;77.45;99344.16;4486449;31;34052;-79
2022/01/06 08:13:15;;;;;;;7.07;2.17;;;;;;;2.46;76.82;99352.31;4498631;31;34571;-78
2022/01/06 08:16:03;;;;;;;8.13;2.10;;;;;;;2.09;78.21;99350.53;4503418;31;35738;-79
2022/01/06 08:18:49;;;;;;;8.02;1.70;;;;;;;2.48;77.06;99358.28;4478856;31;35227;-79
2022/01/06 08:21:36;;;;;;;5.70;1.70;;;;;;;2.86;75.78;99348.13;4488095;31;34136;-80
2022/01/06 08:24:22;;;;;;;5.80;1.83;;;;;;;2.56;76.30;99357.78;4492896;31;35454;-78
2022/01/06 08:27:08;;;;;;;7.93;1.62;;;;;;;2.57;76.40;99358.59;4502029;31;36071;-78
2022/01/06 08:29:55;;;;;;;6.90;1.90;;;;;;;2.58;76.27;99361.00;4485721;31;35069;-77
2022/01/06 08:32:42;;;;;;;4.10;1.45;;;;;;;2.97;75.63;99365.19;4498705;31;34143;-78
2022/01/06 08:35:29;;;;;;;5.55;1.67;;;;;;;3.06;74.30;99372.50;4488102;31;34727;-79
2022/01/06 08:38:15;;;;;;;4.82;1.90;;;;;;;2.91;73.99;99386.84;4500832;31;35954;-77
2022/01/06 08:41:01;;;;;;;6.18;2.20;;;;;;;3.54;72.73;99393.97;4483995;32;35486;-77
2022/01/06 08:43:48;;;;;;;6.87;1.50;;;;;;;3.03;73.48;99392.00;4494799;31;34268;-79
2022/01/06 08:46:34;;;;;;;13.20;5.32;;;;;;;3.29;72.93;99406.37;4489696;31;35567;-77
2022/01/06 08:49:21;;;;;;;11.57;5.50;;;;;;;3.21;73.40;99401.50;4476366;31;34561;-78
2022/01/06 08:52:08;;;;;;;6.95;3.35;;;;;;;3.38;73.31;99414.78;4487214;31;35393;-77
2022/01/06 08:54:54;;;;;;;6.90;1.65;;;;;;;2.97;74.62;99406.59;4488369;31;33956;-80
2022/01/06 08:57:41;;;;;;;7.37;1.98;;;;;;;2.89;74.70;99416.03;4492543;31;35479;-78
2022/01/06 09:00:35;;;;;;;4.28;1.45;;;;;;;3.21;73.50;99409.62;4488931;31;34553;-78
2022/01/06 09:03:22;;;;;;;5.78;1.70;;;;;;;3.08;73.13;99413.66;4476043;31;35290;-79
2022/01/06 09:06:12;;;;;;;5.68;1.55;;;;;;;2.84;74.21;99417.91;4489757;31;33726;-81
2022/01/06 09:08:58;;;;;;;4.72;1.40;;;;;;;3.42;72.13;99415.91;4476745;31;34414;-78
2022/01/06 09:11:46;;;;;;;5.72;2.05;;;;;;;3.18;72.98;99418.28;4489709;31;35944;-78
2022/01/06 09:14:32;;;;;;;7.68;2.25;;;;;;;3.42;72.67;99407.78;4480052;31;34048;-78
2022/01/06 09:17:20;;;;;;;4.07;1.50;;;;;;;3.54;72.07;99419.16;4480343;31;35527;-80
2022/01/06 09:20:07;;;;;;;6.10;1.80;;;;;;;3.27;72.72;99418.56;4486101;31;34557;-79
2022/01/06 09:22:58;;;;;;;4.80;1.60;;;;;;;3.36;72.55;99425.09;4487619;31;33785;-77
2022/01/06 09:25:44;;;;;;;5.28;1.70;;;;;;;3.17;72.59;99429.41;4488878;31;35370;-79
2022/01/06 09:28:31;;;;;;;6.18;2.50;;;;;;;3.00;73.59;99421.50;4489028;31;35126;-78
2022/01/06 09:31:17;;;;;;;3.50;1.25;;;;;;;2.96;73.84;99423.94;4475695;31;33278;-76
2022/01/06 09:34:04;;;;;;;3.42;1.60;;;;;;;3.21;73.85;99422.34;4459300;32;35993;-79
2022/01/06 09:36:51;;;;;;;4.20;1.60;;;;;;;3.59;71.78;99419.16;4456455;32;34673;-80
2022/01/06 09:39:38;;;;;;;4.47;1.48;;;;;;;3.42;72.99;99431.34;4458665;32;33751;-78
2022/01/06 09:42:25;;;;;;;4.05;1.50;;;;;;;3.63;71.80;99429.47;4460662;32;33973;-77
2022/01/06 09:45:12;;;;;;;7.70;2.12;;;;;;;3.65;71.83;99432.72;4457901;32;34095;-77
2022/01/06 09:47:59;;;;;;;4.68;2.15;;;;;;;3.92;70.76;99437.84;4458439;32;34601;-77
2022/01/06 09:50:46;;;;;;;5.05;1.62;;;;;;;3.59;71.95;99443.56;4443942;32;34697;-78
2022/01/06 09:53:32;;;;;;;7.78;1.70;;;;;;;3.43;72.11;99435.66;4459062;32;35447;-78
2022/01/06 09:56:20;;;;;;;4.37;1.30;;;;;;;3.91;71.37;99439.75;4452502;32;34621;-79
2022/01/06 09:59:07;;;;;;;6.82;1.45;;;;;;;3.99;69.12;99435.69;4457762;32;34550;-77
2022/01/06 10:01:54;;;;;;;7.60;2.08;;;;;;;3.74;70.14;99436.50;4459672;32;32219;-79
2022/01/06 10:04:41;;;;;;;7.55;1.70;;;;;;;3.68;71.76;99440.31;4461455;32;34236;-80
2022/01/06 10:07:35;;;;;;;6.00;2.53;;;;;;;3.84;70.49;99450.03;4455155;32;34806;-78
2022/01/06 10:10:25;;;;;;;3.58;1.20;;;;;;;3.80;71.14;99454.41;4456518;32;34747;-78
2022/01/06 10:13:15;;;;;;;4.87;1.45;;;;;;;4.10;69.56;99455.47;4454765;32;35046;-77
2022/01/06 10:16:17;;;;;;;3.30;0.98;;;;;;;3.89;70.32;99458.19;4457168;32;34657;-77
2022/01/06 10:19:09;;;;;;;4.87;1.45;;;;;;;3.95;70.64;99456.28;4454276;32;34784;-79
2022/01/06 10:21:58;;;;;;;4.47;1.55;;;;;;;4.24;69.16;99468.22;4456190;32;34509;-80
2022/01/06 10:24:46;;;;;;;4.35;1.50;;;;;;;4.17;69.12;99454.09;4461510;32;33693;-78
2022/01/06 10:27:33;;;;;;;1.85;1.00;;;;;;;3.89;69.51;99460.09;4457847;32;34593;-80
2022/01/06 10:30:19;;;;;;;3.83;1.48;;;;;;;4.15;69.15;99461.69;4462602;32;36497;-76
2022/01/06 10:33:10;;;;;;;4.80;1.25;;;;;;;3.82;68.63;99477.44;4483840;31;35383;-79
2022/01/06 10:36:04;;;;;;;3.75;1.40;;;;;;;3.98;68.79;99474.72;4473461;31;35044;-77
2022/01/06 10:38:56;;;;;;;3.60;1.02;;;;;;;3.85;69.37;99467.16;4479081;31;34081;-78
2022/01/06 10:41:43;;;;;;;;;;;;;;;4.25;68.56;99477.16;4474508;31;33470;-78
2022/01/06 10:44:29;;;;;;;4.57;1.12;;;;;;;4.02;68.93;99484.75;4486004;31;34785;-78
2022/01/06 10:47:36;;;;;;;6.32;1.58;;;;;;;4.21;68.70;99476.06;4485081;31;34097;-78
2022/01/06 10:50:26;;;;;;;5.75;2.03;;;;;;;3.99;69.36;99474.47;4486346;31;35650;-78
2022/01/06 10:53:13;;;;;;;4.25;1.40;;;;;;;4.02;68.93;99479.34;4476400;31;35967;-81
2022/01/06 10:56:03;;;;;;;3.10;1.20;;;;;;;3.89;70.07;99479.88;4485729;31;34659;-80
2022/01/06 10:58:49;;;;;;;4.43;1.37;;;;;;;4.09;69.06;99483.66;4489906;31;34038;-80
2022/01/06 11:01:37;;;;;;;4.32;1.42;;;;;;;4.00;69.60;99475.28;4489211;31;35106;-80
2022/01/06 11:04:26;;;;;;;5.07;1.35;;;;;;;4.10;69.08;99482.56;4477084;31;34924;-81
2022/01/06 11:07:13;;;;;;;3.95;1.55;;;;;;;4.42;67.94;99483.09;4484206;31;33490;-82
2022/01/06 11:10:00;;;;;;;6.12;1.45;;;;;;;4.22;68.30;99483.94;4476360;31;35036;-80
2022/01/06 11:12:47;;;;;;;5.57;1.42;;;;;;;4.34;68.28;99483.66;4474523;31;34503;-81
2022/01/06 11:15:33;;;;;;;3.45;1.35;;;;;;;4.53;68.76;99493.94;4486325;31;34964;-84
2022/01/06 11:18:20;;;;;;;7.00;1.52;;;;;;;4.40;67.88;99489.87;4475718;31;34465;-84
2022/01/06 11:21:11;;;;;;;4.07;1.60;;;;;;;4.10;69.39;99504.25;4478217;31;34972;-80
2022/01/06 11:24:12;;;;;;;5.53;1.50;;;;;;;4.50;68.51;99504.25;4477251;31;35227;-81
2022/01/06 11:27:01;;;;;;;5.78;1.70;;;;;;;4.08;69.63;99512.69;4467290;31;35051;-78
2022/01/06 11:29:48;;;;;;;3.72;1.30;;;;;;;3.71;71.13;99515.63;4477092;31;34496;-81
2022/01/06 11:32:34;;;;;;;4.40;1.70;;;;;;;3.89;70.66;99506.16;4487954;31;34518;-80
2022/01/06 11:35:21;;;;;;;4.10;1.42;;;;;;;3.94;71.03;99512.41;4476656;31;34816;-81
2022/01/06 11:38:07;;;;;;;4.35;1.73;;;;;;;3.93;70.68;99510.78;4475818;31;37126;-82
2022/01/06 11:41:10;;;;;;;4.70;1.60;;;;;;;4.19;69.39;99510.78;4474649;31;34543;-80
2022/01/06 11:43:58;;;;;;;5.93;1.92;;;;;;;3.98;70.21;99508.06;4472096;31;34179;-80
2022/01/06 11:46:47;;;;;;;3.70;1.48;;;;;;;3.98;70.60;99510.75;4472183;31;34554;-77
2022/01/06 11:49:42;;;;;;;4.72;2.15;;;;;;;3.90;70.44;99505.91;4489555;31;34077;-78
2022/01/06 11:52:29;;;;;;;4.78;1.95;;;;;;;4.10;70.35;99506.97;4474488;31;34526;-79
2022/01/06 11:55:15;;;;;;;6.07;1.52;;;;;;;3.96;69.86;99504.81;4479004;31;34008;-80
2022/01/06 11:58:22;;;;;;;5.25;1.83;;;;;;;4.23;68.12;99511.88;4486711;31;34533;-80
2022/01/06 12:01:14;;;;;;;3.55;1.60;;;;;;;4.44;67.39;99507.22;4478687;31;33467;-77
2022/01/06 12:04:04;;;;;;;4.68;1.60;;;;;;;4.10;68.38;99509.69;4487922;31;34585;-78
2022/01/06 12:06:50;;;;;;;4.75;1.52;;;;;;;3.88;68.34;99510.78;4474642;31;33781;-78
2022/01/06 12:09:37;;;;;;;5.25;1.50;;;;;;;3.93;68.17;99497.22;4476003;31;34609;-78
2022/01/06 12:12:35;;;;;;;4.20;1.70;;;;;;;4.03;68.03;99502.62;4476007;31;34905;-79
2022/01/06 12:15:21;;;;;;;3.35;1.50;;;;;;;4.11;67.32;99503.19;4473584;31;34000;-77
2022/01/06 12:18:08;;;;;;;4.53;1.62;;;;;;;4.47;66.60;99506.69;4486043;31;33820;-78
2022/01/06 12:20:57;;;;;;;6.82;1.55;;;;;;;4.45;66.90;99509.66;4483304;31;33184;-78
2022/01/06 12:23:44;;;;;;;4.18;1.50;;;;;;;4.44;66.83;99521.63;4466310;31;34900;-80
2022/01/06 12:26:32;;;;;;;4.03;1.37;;;;;;;4.41;66.75;99515.91;4478129;31;34984;-77
2022/01/06 12:29:27;;;;;;;4.87;1.92;;;;;;;4.54;66.52;99528.13;4476357;31;35728;-78
2022/01/06 12:32:25;;;;;;;3.28;1.40;;;;;;;4.45;67.07;99536.00;4484554;31;34577;-77
2022/01/06 12:35:41;;;;;;;4.37;1.58;;;;;;;4.38;68.16;99535.44;4455348;31;36117;-80
2022/01/06 12:38:31;;;;;;;4.65;1.45;;;;;;;4.50;67.91;99539.53;4478511;31;34529;-78
2022/01/06 12:41:34;;;;;;;6.35;1.80;;;;;;;4.18;67.76;99547.91;4479410;31;34693;-79
2022/01/06 12:44:24;;;;;;;3.83;1.60;;;;;;;4.45;67.17;99553.09;4487683;31;35551;-76
2022/01/06 12:47:10;;;;;;;5.43;1.98;;;;;;;4.10;67.61;99555.78;4488361;31;34598;-77
2022/01/06 12:50:00;;;;;;;6.28;1.62;;;;;;;3.81;68.61;99553.56;4488597;31;34406;-76
2022/01/06 12:52:47;;;;;;;4.97;1.77;;;;;;;4.24;68.01;99551.44;4491983;31;34311;-77
2022/01/06 12:55:41;;;;;;;4.70;1.50;;;;;;;4.11;68.18;99557.44;4478250;31;34646;-79
2022/01/06 12:58:33;;;;;;;4.65;1.70;;;;;;;4.28;67.74;99557.97;4492034;31;35756;-77
2022/01/06 13:01:20;;;;;;;3.85;1.50;;;;;;;4.20;67.46;99567.47;4477141;31;34543;-77
2022/01/06 13:04:08;;;;;;;7.97;1.50;;;;;;;4.06;68.45;99575.31;4480413;31;35599;-80
2022/01/06 13:06:57;;;;;;;3.08;1.50;;;;;;;4.47;67.18;99567.19;4477536;31;34695;-79
2022/01/06 13:09:44;;;;;;;5.50;1.77;;;;;;;4.20;68.09;99572.06;4465422;31;34963;-78
2022/01/06 13:12:31;;;;;;;3.15;1.37;;;;;;;4.12;68.32;99578.84;4487587;31;34648;-78
2022/01/06 13:15:17;;;;;;;5.87;1.67;;;;;;;4.20;68.39;99570.16;4494513;31;35065;-78
2022/01/06 13:18:03;;;;;;;8.45;1.90;;;;;;;4.29;68.81;99573.16;4491986;31;34736;-77
2022/01/06 13:20:57;;;;;;;5.35;1.67;;;;;;;4.14;69.16;99573.16;4489452;31;34898;-77
2022/01/06 13:23:43;;;;;;;5.62;1.90;;;;;;;4.25;69.12;99569.38;4484934;31;34729;-77
2022/01/06 13:26:32;;;;;;;7.62;1.77;;;;;;;4.38;68.35;99576.13;4492711;31;34841;-77
2022/01/06 13:29:29;;;;;;;3.60;1.60;;;;;;;4.22;69.31;99580.75;4492595;31;34628;-77
2022/01/06 13:32:22;;;;;;;7.93;1.90;;;;;;;4.61;67.97;99583.75;4493326;31;36040;-77
2022/01/06 13:35:09;;;;;;;6.30;2.20;;;;;;;4.58;68.62;99583.44;4478910;31;35483;-78
2022/01/06 13:37:56;;;;;;;11.20;3.42;;;;;;;4.81;67.67;99580.19;4488087;31;34185;-78
2022/01/06 13:41:01;;;;;;;6.90;2.83;;;;;;;4.76;68.34;99584.81;4475481;31;35061;-79
2022/01/06 13:43:55;;;;;;;4.32;1.75;;;;;;;4.71;67.41;99591.84;4488461;31;35642;-77
2022/01/06 13:46:53;;;;;;;5.70;1.83;;;;;;;4.68;67.05;99595.13;4475943;31;35373;-79
2022/01/06 13:52:44;;;;;;;5.78;1.62;;;;;;;4.64;67.13;99594.06;4479415;31;34600;-77
2022/01/06 13:55:31;;;;;;;7.87;3.62;;;;;;;4.32;66.79;99594.31;4489015;31;34563;-78
2022/01/06 13:58:17;;;;;;;5.43;1.65;;;;;;;4.73;65.38;99602.47;4481383;31;34393;-79
2022/01/06 14:01:05;;;;;;;5.50;1.50;;;;;;;4.54;65.60;99614.94;4486392;31;34025;-78
2022/01/06 14:03:52;;;;;;;7.35;2.65;;;;;;;4.33;66.50;99619.56;4474175;31;33534;-79
2022/01/06 14:06:38;;;;;;;4.22;1.48;;;;;;;4.95;64.94;99619.25;4475836;31;34841;-79
2022/01/06 14:09:24;;;;;;;2.70;1.17;;;;;;;4.92;64.94;99625.25;4470598;31;34133;-79
2022/01/06 14:12:11;;;;;;;5.82;1.30;;;;;;;5.17;63.94;99626.25;4488739;31;34719;-80
2022/01/06 14:15:01;;;;;;;2.87;1.60;;;;;;;4.60;66.37;99641.00;4474482;31;35753;-78
2022/01/06 14:17:47;;;;;;;15.77;7.03;;;;;;;4.41;67.56;99638.81;4479480;31;34586;-78
2022/01/06 14:20:34;;;;;;;16.77;6.20;;;;;;;4.35;68.25;99650.72;4493259;31;34657;-77
2022/01/06 14:23:21;;;;;;;7.95;3.05;;;;;;;4.28;68.07;99645.56;4491741;31;35183;-77
2022/01/06 14:26:08;;;;;;;16.87;7.95;;;;;;;4.60;67.25;99651.84;4463802;31;34553;-78
2022/01/06 14:28:55;;;;;;;8.85;4.10;;;;;;;3.97;69.08;99654.75;4474143;31;35007;-78
2022/01/06 14:31:44;;;;;;;5.25;2.42;;;;;;;3.87;70.15;99660.94;4487853;31;34219;-78
2022/01/06 14:34:30;;;;;;;18.52;8.90;;;;;;;4.27;68.48;99664.84;4488887;31;34094;-79
2022/01/06 14:37:19;;;;;;;3.17;1.45;;;;;;;4.93;65.67;99658.63;4491295;31;35529;-78
2022/01/06 14:40:06;;;;;;;10.45;3.67;;;;;;;4.61;66.63;99661.59;4488821;31;35169;-78
2022/01/06 14:42:53;;;;;;;33.85;13.55;;;;;;;4.16;68.37;99680.28;4489126;31;34551;-78
2022/01/06 14:45:40;;;;;;;21.87;9.32;;;;;;;4.66;67.25;99677.91;4478013;31;34208;-79
2022/01/06 14:48:30;;;;;;;20.25;9.20;;;;;;;3.93;69.35;99681.56;4487973;31;34602;-79
2022/01/06 14:51:20;;;;;;;15.10;6.68;;;;;;;3.91;69.42;99683.72;4466375;31;35511;-78
2022/01/06 14:54:07;;;;;;;20.02;8.75;;;;;;;3.83;70.59;99685.03;4487755;31;34529;-78
2022/01/06 14:56:53;;;;;;;9.90;2.15;;;;;;;4.14;69.66;99687.84;4489831;31;33151;-78
2022/01/06 14:59:40;;;;;;;3.37;1.52;;;;;;;4.35;67.29;99693.31;4487796;31;35667;-77
2022/01/06 15:02:26;;;;;;;5.37;2.20;;;;;;;4.20;68.01;99686.78;4476672;31;35520;-78
2022/01/06 15:05:13;;;;;;;8.88;3.70;;;;;;;4.41;67.34;99694.97;4490201;31;34760;-78
2022/01/06 15:07:59;;;;;;;3.95;1.85;;;;;;;4.96;64.65;99688.75;4487103;31;34099;-77
2022/01/06 15:10:46;;;;;;;4.70;2.28;;;;;;;4.34;66.65;99692.50;4489633;31;35559;-78
2022/01/06 15:13:34;;;;;;;6.37;1.48;;;;;;;4.61;66.44;99703.16;4487530;31;35961;-77
2022/01/06 15:16:20;;;;;;;6.68;1.85;;;;;;;4.48;66.84;99704.47;4488145;31;34649;-77
2022/01/06 15:19:07;;;;;;;5.78;2.00;;;;;;;4.57;66.34;99717.50;4475833;31;34993;-77
2022/01/06 15:21:53;;;;;;;5.07;1.70;;;;;;;4.84;65.94;99718.09;4485495;31;35484;-77
2022/01/06 15:24:42;;;;;;;3.75;1.75;;;;;;;4.89;65.79;99723.50;4492220;31;35033;-78
2022/01/06 15:27:28;;;;;;;6.07;1.77;;;;;;;4.40;67.85;99734.03;4488489;31;34780;-79
2022/01/06 15:30:15;;;;;;;7.97;2.00;;;;;;;4.46;67.80;99747.34;4487031;31;34083;-79
2022/01/06 15:33:05;;;;;;;5.40;1.95;;;;;;;4.29;69.70;99747.56;4475028;31;35712;-77
2022/01/06 15:35:53;;;;;;;5.28;1.70;;;;;;;4.05;71.44;99755.34;4489831;31;35561;-79
2022/01/06 15:38:40;;;;;;;5.55;2.75;;;;;;;4.22;71.09;99757.84;4487107;31;34301;-78
2022/01/06 15:41:26;;;;;;;5.95;2.53;;;;;;;4.11;72.12;99752.66;4488741;31;34742;-77
2022/01/06 15:44:13;;;;;;;6.72;2.60;;;;;;;3.98;73.22;99760.19;4486575;31;35485;-78
2022/01/06 15:46:59;;;;;;;7.57;3.12;;;;;;;3.87;73.83;99763.13;4488788;31;35061;-77
2022/01/06 15:49:46;;;;;;;8.70;3.05;;;;;;;4.27;72.75;99768.72;4472385;31;35421;-78
2022/01/06 15:52:32;;;;;;;9.10;3.35;;;;;;;4.21;73.60;99777.09;4487730;31;34098;-78
2022/01/06 15:55:23;;;;;;;6.22;2.20;;;;;;;4.36;72.22;99776.34;4466389;31;35562;-78
2022/01/06 15:58:09;;;;;;;6.57;2.85;;;;;;;4.43;70.15;99777.72;4474924;31;34970;-77
2022/01/06 16:01:17;;;;;;;8.80;2.42;;;;;;;4.64;70.54;99778.59;4478215;31;33533;-78
2022/01/06 16:07:30;;;;;;;5.25;2.12;;;;;;;3.45;74.24;99810.03;4490142;31;35290;-79
2022/01/06 16:10:16;;;;;;;7.62;2.83;;;;;;;3.70;73.81;99812.91;4477512;31;34485;-78
2022/01/06 16:13:03;;;;;;;5.97;2.62;;;;;;;3.35;75.09;99827.00;4475767;31;35439;-78
2022/01/06 16:15:50;;;;;;;6.22;2.90;;;;;;;4.24;72.19;99818.09;4487602;31;34117;-78
2022/01/06 16:18:37;;;;;;;6.37;2.58;;;;;;;4.02;73.16;99826.37;4488294;31;35109;-80
2022/01/06 16:21:23;;;;;;;7.40;2.35;;;;;;;3.56;74.43;99833.41;4473620;31;35666;-80
2022/01/06 16:24:10;;;;;;;5.62;1.60;;;;;;;3.61;71.81;99841.56;4486067;31;34512;-79
2022/01/06 16:26:58;;;;;;;3.53;1.30;;;;;;;2.92;66.35;99850.44;4492049;31;34170;-75
2022/01/06 16:29:45;;;;;;;4.55;2.12;;;;;;;2.87;65.12;99855.78;4482419;31;35465;-79
2022/01/06 16:32:35;;;;;;;3.28;1.45;;;;;;;2.85;65.16;99853.34;4478148;31;36014;-78
2022/01/06 16:35:21;;;;;;;5.25;2.15;;;;;;;3.01;64.64;99848.91;4490003;31;36000;-77
2022/01/06 16:38:08;;;;;;;16.27;6.97;;;;;;;2.65;65.55;99840.44;4493204;31;34790;-77
2022/01/06 16:40:54;;;;;;;29.55;12.30;;;;;;;2.70;64.14;99854.03;4479682;31;35582;-78
2022/01/06 16:43:41;;;;;;;21.37;9.43;;;;;;;2.57;65.72;99859.00;4478472;31;34460;-83
2022/01/06 16:46:28;;;;;;;14.23;5.07;;;;;;;2.54;65.48;99865.72;4473892;31;34698;-82
2022/01/06 16:49:15;;;;;;;12.82;5.12;;;;;;;2.29;65.87;99860.00;4486426;31;34099;-81
2022/01/06 16:52:01;;;;;;;15.65;7.32;;;;;;;2.17;65.31;99874.47;4477308;31;34495;-81
2022/01/06 16:54:49;;;;;;;9.75;4.80;;;;;;;2.09;66.54;99879.47;4467997;31;36080;-81
2022/01/06 16:57:35;;;;;;;5.35;2.53;;;;;;;1.96;66.84;99881.47;4471925;31;34206;-80
2022/01/06 17:00:22;;;;;;;8.15;3.85;;;;;;;2.03;66.64;99897.50;4478238;31;34541;-80
2022/01/06 17:03:12;;;;;;;7.37;2.90;;;;;;;2.03;66.22;99902.91;4488040;31;34594;-81
2022/01/06 17:05:58;;;;;;;6.85;3.30;;;;;;;1.74;67.36;99904.91;4469297;31;34548;-80
2022/01/06 17:08:44;;;;;;;6.15;3.42;;;;;;;1.60;68.14;99909.81;4469411;31;35447;-80
2022/01/06 17:11:31;;;;;;;7.62;2.92;;;;;;;1.69;67.54;99918.31;4487054;31;34861;-80
2022/01/06 17:14:17;;;;;;;5.97;2.70;;;;;;;1.65;67.77;99918.00;4471293;31;34182;-83
2022/01/06 17:17:04;;;;;;;7.85;3.40;;;;;;;1.78;66.95;99928.47;4472767;31;35611;-81
2022/01/06 17:19:50;;;;;;;5.20;2.60;;;;;;;1.52;66.80;99926.41;4469847;31;34489;-82
2022/01/06 17:22:37;;;;;;;5.18;2.47;;;;;;;1.40;67.26;99929.19;4468117;31;35278;-82
2022/01/06 17:25:23;;;;;;;5.30;2.35;;;;;;;1.21;67.88;99922.38;4463878;31;34449;-82
2022/01/06 17:28:11;;;;;;;7.37;2.35;;;;;;;1.30;66.75;99937.09;4480622;31;33838;-82
2022/01/06 17:30:57;;;;;;;5.00;2.00;;;;;;;1.37;65.77;99945.88;4468388;31;34265;-81
2022/01/06 17:33:44;;;;;;;5.95;2.42;;;;;;;1.27;66.07;99945.69;4468150;31;34147;-81
2022/01/06 17:36:30;;;;;;;5.90;2.58;;;;;;;1.44;65.49;99951.12;4478339;31;34227;-81
2022/01/06 17:39:17;;;;;;;6.60;2.15;;;;;;;1.37;64.28;99956.69;4478702;31;34241;-82
2022/01/06 17:42:04;;;;;;;3.20;1.52;;;;;;;0.89;65.99;99966.84;4469719;31;33357;-81
2022/01/06 17:44:52;;;;;;;3.47;1.60;;;;;;;1.33;63.78;99966.31;4486838;31;34699;-82
2022/01/06 17:47:39;;;;;;;5.37;2.15;;;;;;;0.87;64.66;99978.91;4469352;31;39251;-81
2022/01/06 17:50:32;;;;;;;2.67;1.30;;;;;;;0.98;64.48;99977.25;4470666;31;34654;-82
2022/01/06 17:53:19;;;;;;;4.47;1.70;;;;;;;1.15;63.00;99983.53;4479586;31;35332;-82
2022/01/06 17:56:06;;;;;;;4.90;1.92;;;;;;;1.11;62.14;99971.56;4479396;31;34224;-81
2022/01/06 17:58:52;;;;;;;4.30;1.67;;;;;;;1.16;60.77;99985.16;4459671;31;35218;-81
2022/01/06 18:01:38;;;;;;;5.10;1.65;;;;;;;0.94;61.77;99989.56;4481093;31;34765;-82
2022/01/06 18:04:26;;;;;;;3.58;1.58;;;;;;;0.86;61.81;99998.88;4470894;31;35345;-82
2022/01/06 18:07:22;;;;;;;4.93;1.73;;;;;;;1.03;61.37;100001.66;4477112;31;33800;-82
2022/01/06 18:13:14;;;;;;;7.57;2.58;;;;;;;1.03;61.60;99990.84;4482470;31;35886;-82
2022/01/06 18:16:02;;;;;;;4.87;2.45;;;;;;;0.75;62.70;99992.44;4473104;31;34322;-82
2022/01/06 18:18:49;;;;;;;4.30;2.25;;;;;;;1.32;61.08;99994.37;4490990;31;35092;-82
2022/01/06 18:21:36;;;;;;;3.70;1.75;;;;;;;0.91;62.50;99988.16;4473265;31;33139;-84
2022/01/06 18:24:26;;;;;;;5.50;1.70;;;;;;;0.36;65.07;100004.78;4482508;31;34895;-82
2022/01/06 18:27:14;;;;;;;6.25;1.40;;;;;;;0.43;65.39;100002.81;4473797;31;33401;-82
2022/01/06 18:30:02;;;;;;;3.70;1.30;;;;;;;0.47;65.44;100016.63;4480990;31;35112;-81
2022/01/06 18:32:51;;;;;;;2.83;1.40;;;;;;;0.73;63.54;100012.63;4486929;31;34633;-80
2022/01/06 18:35:38;;;;;;;5.22;1.58;;;;;;;0.41;63.71;100015.69;4457900;31;34658;-80
2022/01/06 18:38:24;;;;;;;4.43;1.40;;;;;;;0.49;62.68;100014.53;4469813;31;34239;-77
2022/01/06 18:41:13;;;;;;;5.32;1.90;;;;;;;0.53;62.14;100013.81;4477598;31;34176;-76
2022/01/06 18:44:00;;;;;;;2.70;1.20;;;;;;;0.41;59.73;100021.91;4475814;31;35233;-79
2022/01/06 18:46:47;;;;;;;4.43;1.30;;;;;;;0.36;59.07;100019.09;4475950;31;35918;-79
2022/01/06 18:49:33;;;;;;;3.03;0.95;;;;;;;0.63;57.67;100021.31;4476177;31;35411;-79
2022/01/06 18:52:20;;;;;;;4.70;1.40;;;;;;;0.65;56.45;100033.50;4486068;31;33879;-77
2022/01/06 18:55:07;;;;;;;3.72;1.20;;;;;;;0.61;55.46;100042.28;4475802;31;35451;-79